Time;durP1;ratioP1;P1;durP2;ratioP2;P2;SDS_P1;SDS_P2;PMS_P1;PMS_P2;Temp;Humidity;BMP_temperature;BMP_pressure;BME280_temperature;BME280_humidity;BME280_pressure;Samples;Min_cycle;Max_cycle;Signal;HPM_P1;HPM_P2
2023/03/31 00:01:40;;;;;;;2.70;1.63;;;;;;;10.39;98.18;154027.69;5027035;28;20788;-78
2023/03/31 00:04:08;;;;;;;7.50;2.20;;;;;;;10.38;96.99;154026.41;5029106;28;20486;-78
2023/03/31 00:06:40;;;;;;;5.10;1.90;;;;;;;10.42;96.84;154035.47;5029339;28;20463;-78
2023/03/31 00:09:08;;;;;;;2.40;1.50;;;;;;;10.43;97.15;154038.09;5031844;28;20460;-78
2023/03/31 00:11:36;;;;;;;3.73;2.20;;;;;;;10.44;98.01;154039.34;5020398;28;20507;-78
2023/03/31 00:14:05;;;;;;;5.57;3.13;;;;;;;10.42;97.38;154034.16;5026411;28;20813;-78
2023/03/31 00:16:34;;;;;;;4.00;1.77;;;;;;;10.45;98.86;154043.25;5029331;28;20448;-78
2023/03/31 00:19:00;;;;;;;5.00;2.43;;;;;;;10.43;99.87;154038.09;5020247;28;20948;-78
2023/03/31 00:21:32;;;;;;;3.20;2.20;;;;;;;10.39;99.28;154027.69;5026482;28;20511;-78
2023/03/31 00:24:00;;;;;;;3.33;1.73;;;;;;;10.36;98.43;154019.94;5021438;28;20982;-78
2023/03/31 00:26:27;;;;;;;4.13;1.83;;;;;;;10.42;100.00;154034.16;5020251;28;20457;-78
2023/03/31 00:28:54;;;;;;;4.43;2.10;;;;;;;10.35;99.15;154018.63;5007576;28;20460;-78
2023/03/31 00:31:21;;;;;;;3.97;2.40;;;;;;;10.39;100.00;154027.69;5027274;28;20460;-78
2023/03/31 00:33:50;;;;;;;2.70;1.50;;;;;;;10.37;99.74;154022.53;5022712;28;20452;-78
2023/03/31 00:36:19;;;;;;;2.10;1.70;;;;;;;10.36;99.53;154019.94;5024841;28;20546;-78
2023/03/31 00:38:47;;;;;;;5.27;2.20;;;;;;;10.33;97.90;154012.16;5031489;28;20634;-78
2023/03/31 00:41:14;;;;;;;2.67;2.20;;;;;;;10.38;99.56;154025.09;5002525;28;20504;-78
2023/03/31 00:43:42;;;;;;;4.60;2.03;;;;;;;10.36;99.65;154019.94;5058606;28;20476;-78
2023/03/31 00:46:16;;;;;;;4.70;2.10;;;;;;;10.36;99.22;154021.22;5013828;28;20453;-78
2023/03/31 00:48:47;;;;;;;2.63;2.03;;;;;;;10.36;100.00;154021.22;5031327;28;20435;-78
2023/03/31 00:51:16;;;;;;;5.63;2.37;;;;;;;10.32;99.50;154010.91;5014728;28;20436;-77
2023/03/31 00:53:42;;;;;;;4.90;2.03;;;;;;;10.33;99.23;154012.16;5014539;28;20458;-77
2023/03/31 00:56:12;;;;;;;3.33;2.30;;;;;;;10.31;98.67;154008.28;5030386;28;20448;-78
2023/03/31 00:58:42;;;;;;;6.50;1.80;;;;;;;10.33;100.00;154012.16;5028938;28;20458;-78
2023/03/31 01:01:13;;;;;;;3.30;2.13;;;;;;;10.28;99.50;154000.50;5029525;28;20460;-78
2023/03/31 01:03:41;;;;;;;4.97;2.50;;;;;;;10.27;100.00;153996.66;5008118;28;20473;-78
2023/03/31 01:06:09;;;;;;;2.27;1.90;;;;;;;10.29;100.00;154003.13;5018615;28;20457;-78
2023/03/31 01:08:38;;;;;;;4.47;2.40;;;;;;;10.26;98.87;153994.03;5013039;28;20955;-78
2023/03/31 01:11:06;;;;;;;4.57;2.33;;;;;;;10.28;100.00;153999.22;5021866;28;20510;-78
2023/03/31 01:13:34;;;;;;;3.27;2.17;;;;;;;10.29;100.00;154001.81;5023882;28;20457;-78
2023/03/31 01:16:01;;;;;;;3.93;1.90;;;;;;;10.24;98.75;153990.19;5027327;28;20456;-78
2023/03/31 01:18:29;;;;;;;3.30;1.93;;;;;;;10.27;98.83;153997.91;5024775;28;20461;-78
2023/03/31 01:21:19;;;;;;;4.40;2.30;;;;;;;10.26;99.31;153994.03;5018671;28;20979;-78
2023/03/31 01:24:14;;;;;;;3.43;2.00;;;;;;;10.24;98.24;153990.19;5023128;28;20579;-78
2023/03/31 01:26:51;;;;;;;2.90;1.97;;;;;;;10.24;97.08;153988.88;5016283;28;21026;-78
2023/03/31 01:29:35;;;;;;;4.07;2.37;;;;;;;10.28;96.90;153999.22;5021112;28;20554;-78
2023/03/31 01:32:23;;;;;;;6.67;2.27;;;;;;;10.31;98.25;154007.00;5001536;28;20496;-77
2023/03/31 01:35:31;;;;;;;5.07;2.80;;;;;;;10.31;99.70;154007.00;5016692;28;20476;-79
2023/03/31 01:38:16;;;;;;;4.20;2.27;;;;;;;10.30;98.71;154004.38;5008185;28;20534;-79
2023/03/31 01:40:57;;;;;;;4.27;2.70;;;;;;;10.31;97.56;154007.00;5026588;28;20456;-78
2023/03/31 01:43:27;;;;;;;4.03;2.20;;;;;;;10.34;98.13;154014.75;5007856;28;20508;-78
2023/03/31 01:45:59;;;;;;;4.33;1.87;;;;;;;10.37;100.00;154022.53;5021837;28;20545;-77
2023/03/31 01:48:34;;;;;;;3.70;2.13;;;;;;;10.33;99.90;154012.16;5028258;28;20463;-77
2023/03/31 01:51:03;;;;;;;7.10;2.60;;;;;;;10.34;97.86;154016.06;5023487;28;20448;-77
2023/03/31 01:53:34;;;;;;;3.83;1.97;;;;;;;10.39;97.34;154027.69;5022455;28;20659;-77
2023/03/31 01:56:05;;;;;;;3.10;1.90;;;;;;;10.41;99.04;154032.88;5002975;28;20487;-77
2023/03/31 01:58:36;;;;;;;3.80;2.00;;;;;;;10.43;99.87;154038.09;5003484;28;20547;-78
2023/03/31 02:01:09;;;;;;;6.83;1.93;;;;;;;10.43;99.74;154036.78;5021602;28;20456;-77
2023/03/31 02:03:38;;;;;;;5.30;2.30;;;;;;;10.39;100.00;154027.69;5029659;28;20504;-77
2023/03/31 02:06:09;;;;;;;4.90;2.27;;;;;;;10.39;100.00;154027.69;5009902;28;20471;-77
2023/03/31 02:08:38;;;;;;;3.63;1.77;;;;;;;10.43;100.00;154038.09;5019016;28;20815;-78
2023/03/31 02:11:06;;;;;;;2.83;2.00;;;;;;;10.40;100.00;154030.31;5016746;28;20453;-77
2023/03/31 02:13:35;;;;;;;3.77;2.10;;;;;;;10.40;100.00;154030.31;5023764;28;20465;-77
2023/03/31 02:16:07;;;;;;;2.77;2.33;;;;;;;10.42;100.00;154035.47;5008171;28;20828;-77
2023/03/31 02:18:37;;;;;;;6.33;2.27;;;;;;;10.44;100.00;154040.63;5005219;28;20948;-77
2023/03/31 02:21:05;;;;;;;4.23;2.30;;;;;;;10.48;100.00;154049.72;5018154;28;20453;-77
2023/03/31 02:23:32;;;;;;;3.40;2.47;;;;;;;10.44;100.00;154040.63;5025609;28;20888;-77
2023/03/31 02:26:02;;;;;;;3.40;2.20;;;;;;;10.39;100.00;154029.00;5019580;28;20450;-78
2023/03/31 02:28:31;;;;;;;4.80;1.90;;;;;;;10.41;100.00;154032.88;5017312;28;20464;-78
2023/03/31 02:31:07;;;;;;;4.10;2.13;;;;;;;10.39;100.00;154027.69;5002570;28;20502;-78
2023/03/31 02:33:33;;;;;;;3.43;2.07;;;;;;;10.36;100.00;154021.22;5004893;28;20742;-78
2023/03/31 02:36:00;;;;;;;3.70;2.00;;;;;;;10.30;100.00;154004.38;5011132;28;20786;-77
2023/03/31 02:38:27;;;;;;;3.20;2.37;;;;;;;10.28;100.00;154000.50;5012837;28;20551;-78
2023/03/31 02:40:54;;;;;;;3.90;2.30;;;;;;;10.27;100.00;153997.91;5013504;28;21034;-78
2023/03/31 02:43:21;;;;;;;3.50;2.40;;;;;;;10.25;100.00;153991.44;5016088;28;20489;-78
2023/03/31 02:45:50;;;;;;;5.27;2.63;;;;;;;10.27;100.00;153996.66;5020743;28;20498;-78
2023/03/31 02:48:19;;;;;;;5.83;2.60;;;;;;;10.25;100.00;153991.44;5026359;28;20564;-78
2023/03/31 02:51:21;;;;;;;5.80;2.43;;;;;;;10.24;100.00;153988.88;5021003;28;20813;-77
2023/03/31 02:54:10;;;;;;;6.73;2.47;;;;;;;10.22;100.00;153983.66;5021913;28;20456;-78
2023/03/31 02:57:06;;;;;;;4.07;2.53;;;;;;;10.19;100.00;153975.94;5010563;28;20450;-77
2023/03/31 02:59:41;;;;;;;3.77;2.97;;;;;;;10.16;100.00;153969.47;5011078;28;20459;-78
2023/03/31 03:02:14;;;;;;;4.93;3.40;;;;;;;10.11;100.00;153955.19;5002227;28;20518;-77
2023/03/31 03:04:53;;;;;;;3.17;2.73;;;;;;;10.15;100.00;153966.88;5004807;28;20479;-77
2023/03/31 03:07:25;;;;;;;3.27;2.40;;;;;;;10.12;100.00;153957.72;5012518;28;20452;-77
2023/03/31 03:09:59;;;;;;;2.83;2.10;;;;;;;10.12;100.00;153957.72;4995507;28;20453;-77
2023/03/31 03:12:32;;;;;;;7.67;3.40;;;;;;;10.08;100.00;153948.72;5015642;28;20475;-77
2023/03/31 03:15:02;;;;;;;2.97;2.00;;;;;;;10.11;100.00;153955.19;5024549;28;20448;-77
2023/03/31 03:17:33;;;;;;;5.10;2.23;;;;;;;10.08;100.00;153948.72;5027094;28;20452;-77
2023/03/31 03:20:01;;;;;;;4.43;3.00;;;;;;;10.06;100.00;153943.50;5020666;28;20958;-77
2023/03/31 03:22:28;;;;;;;4.60;2.53;;;;;;;10.02;100.00;153931.88;5020418;28;20508;-77
2023/03/31 03:24:55;;;;;;;4.80;2.80;;;;;;;10.03;100.00;153935.78;5024213;28;20563;-77
2023/03/31 03:27:22;;;;;;;3.70;3.07;;;;;;;10.00;100.00;153926.69;5027105;28;20517;-77
2023/03/31 03:29:48;;;;;;;4.73;2.50;;;;;;;9.96;100.00;153916.31;5029316;28;20460;-77
2023/03/31 03:32:15;;;;;;;3.40;2.97;;;;;;;9.92;100.00;153906.00;5025015;28;20799;-77
2023/03/31 03:34:43;;;;;;;3.77;2.30;;;;;;;9.87;100.00;153893.06;5030631;28;20480;-77
2023/03/31 03:37:10;;;;;;;5.20;2.83;;;;;;;9.85;100.00;153889.16;5032091;28;20498;-77
2023/03/31 03:39:37;;;;;;;4.03;2.87;;;;;;;9.84;100.00;153885.28;5030754;28;20598;-78
2023/03/31 03:42:04;;;;;;;4.10;3.13;;;;;;;9.85;100.00;153887.88;5025490;28;20459;-78
2023/03/31 03:44:30;;;;;;;2.93;2.40;;;;;;;9.86;100.00;153891.75;5027658;28;20468;-78
2023/03/31 03:46:57;;;;;;;4.00;3.00;;;;;;;9.87;100.00;153893.06;5031587;28;20478;-78
2023/03/31 03:49:24;;;;;;;3.47;2.40;;;;;;;9.82;100.00;153882.69;5015154;28;20539;-78
2023/03/31 03:51:52;;;;;;;4.73;2.90;;;;;;;9.82;100.00;153880.13;5052607;28;20483;-78
2023/03/31 03:54:18;;;;;;;4.07;2.90;;;;;;;9.82;100.00;153880.13;5017120;28;20962;-77
2023/03/31 03:56:45;;;;;;;3.90;2.63;;;;;;;9.80;100.00;153877.50;5020521;28;20519;-77
2023/03/31 03:59:12;;;;;;;4.17;3.00;;;;;;;9.84;100.00;153885.28;5025176;28;20455;-78
2023/03/31 04:01:39;;;;;;;5.50;3.00;;;;;;;9.82;100.00;153882.69;5030542;28;20459;-78
2023/03/31 04:04:06;;;;;;;4.87;3.37;;;;;;;9.77;100.00;153869.75;5011669;28;20480;-78
2023/03/31 04:06:33;;;;;;;4.20;2.87;;;;;;;9.79;100.00;153874.91;5018957;28;21011;-78
2023/03/31 04:09:01;;;;;;;8.60;3.57;;;;;;;9.75;100.00;153863.28;5008771;28;20932;-77
2023/03/31 04:11:28;;;;;;;6.30;3.87;;;;;;;9.72;100.00;153855.50;5015004;28;20461;-77
2023/03/31 04:13:55;;;;;;;6.20;4.03;;;;;;;9.67;100.00;153843.88;5022150;28;20448;-77
2023/03/31 04:16:24;;;;;;;6.63;3.77;;;;;;;9.64;100.00;153836.09;5009196;28;20449;-77
2023/03/31 04:18:51;;;;;;;4.63;3.37;;;;;;;9.59;100.00;153821.88;5019676;28;20460;-77
2023/03/31 04:21:22;;;;;;;4.33;3.70;;;;;;;9.58;100.00;153820.56;5020763;28;20446;-77
2023/03/31 04:23:49;;;;;;;5.13;3.50;;;;;;;9.57;100.00;153816.69;5027673;28;20499;-77
2023/03/31 04:26:25;;;;;;;7.37;4.00;;;;;;;9.60;100.00;153824.47;5020762;28;20448;-77
2023/03/31 04:28:52;;;;;;;8.07;4.60;;;;;;;9.59;100.00;153821.88;5028135;28;20529;-77
2023/03/31 04:31:23;;;;;;;3.93;3.50;;;;;;;9.58;100.00;153820.56;5029388;28;20448;-77
2023/03/31 04:33:50;;;;;;;4.80;3.80;;;;;;;9.60;100.00;153825.78;5021413;28;20449;-77
2023/03/31 04:36:17;;;;;;;5.30;3.90;;;;;;;9.68;100.00;153846.47;5024506;28;20570;-77
2023/03/31 04:38:45;;;;;;;4.80;3.63;;;;;;;9.66;100.00;153841.25;5030842;28;20523;-77
2023/03/31 04:41:12;;;;;;;3.70;3.23;;;;;;;9.68;100.00;153846.47;5005557;28;20915;-77
2023/03/31 04:43:40;;;;;;;5.30;3.70;;;;;;;9.70;100.00;153851.63;5001480;28;20480;-76
2023/03/31 04:46:07;;;;;;;5.50;3.97;;;;;;;9.69;100.00;153849.03;5026469;28;20436;-77
2023/03/31 04:48:34;;;;;;;5.47;3.57;;;;;;;9.66;100.00;153840.00;5014043;28;20558;-77
2023/03/31 04:51:00;;;;;;;6.43;3.80;;;;;;;9.67;100.00;153842.56;5030429;28;20446;-77
2023/03/31 04:53:27;;;;;;;7.70;3.80;;;;;;;9.66;100.00;153841.25;5018445;28;20791;-77
2023/03/31 04:55:54;;;;;;;6.10;3.77;;;;;;;9.64;100.00;153836.09;5021621;28;20522;-77
2023/03/31 04:58:21;;;;;;;9.97;3.93;;;;;;;9.65;100.00;153838.72;5028491;28;20501;-77
2023/03/31 05:00:49;;;;;;;6.00;4.60;;;;;;;9.63;100.00;153833.53;5023981;28;20459;-77
2023/03/31 05:03:15;;;;;;;5.90;4.20;;;;;;;9.61;100.00;153827.06;5015324;28;20467;-77
2023/03/31 05:05:42;;;;;;;11.97;4.40;;;;;;;9.59;100.00;153823.16;5019683;28;20471;-76
2023/03/31 05:08:09;;;;;;;8.40;4.20;;;;;;;9.61;100.00;153828.34;5017899;28;20455;-77
2023/03/31 05:10:36;;;;;;;5.93;3.83;;;;;;;9.59;100.00;153821.88;5014979;28;20453;-77
2023/03/31 05:13:03;;;;;;;5.53;4.30;;;;;;;9.58;100.00;153820.56;5016189;28;20452;-77
2023/03/31 05:15:29;;;;;;;5.90;4.60;;;;;;;9.60;100.00;153825.78;5015015;28;20550;-77
2023/03/31 05:17:59;;;;;;;7.53;4.83;;;;;;;9.62;100.00;153829.63;4994950;28;20488;-77
2023/03/31 05:20:25;;;;;;;5.17;4.53;;;;;;;9.62;100.00;153829.63;5016526;28;21062;-76
2023/03/31 05:22:52;;;;;;;7.30;4.80;;;;;;;9.57;100.00;153818.00;5017356;28;20864;-77
2023/03/31 05:25:19;;;;;;;8.00;5.10;;;;;;;9.58;100.00;153820.56;5014881;28;20575;-77
2023/03/31 05:27:47;;;;;;;7.30;5.60;;;;;;;9.55;100.00;153812.84;5012600;28;20492;-78
2023/03/31 05:30:14;;;;;;;6.50;5.40;;;;;;;9.54;100.00;153810.25;5015830;28;20452;-78
2023/03/31 05:32:41;;;;;;;8.80;5.73;;;;;;;9.52;100.00;153805.06;5002815;28;20536;-78
2023/03/31 05:35:10;;;;;;;5.33;4.60;;;;;;;9.50;100.00;153799.91;5015316;28;21078;-78
2023/03/31 05:37:37;;;;;;;8.63;6.20;;;;;;;9.51;100.00;153801.16;5012576;28;20448;-76
2023/03/31 05:40:04;;;;;;;6.13;5.40;;;;;;;9.46;100.00;153789.53;4998835;28;20480;-78
2023/03/31 05:42:31;;;;;;;7.03;5.03;;;;;;;9.41;100.00;153776.59;5014911;28;20993;-78
2023/03/31 05:44:58;;;;;;;6.90;5.57;;;;;;;9.40;100.00;153772.75;5013898;28;20480;-78
2023/03/31 05:47:25;;;;;;;7.73;5.80;;;;;;;9.39;100.00;153771.44;5016533;28;20882;-78
2023/03/31 05:49:52;;;;;;;7.60;6.13;;;;;;;9.39;100.00;153771.44;5015154;28;20461;-78
2023/03/31 05:52:20;;;;;;;8.97;5.43;;;;;;;9.38;100.00;153767.53;5017345;28;20828;-78
2023/03/31 05:54:46;;;;;;;6.00;5.33;;;;;;;9.39;100.00;153771.44;5014139;28;20531;-78
2023/03/31 05:57:13;;;;;;;6.77;5.17;;;;;;;9.37;100.00;153764.97;5013593;28;20508;-78
2023/03/31 05:59:41;;;;;;;8.20;5.53;;;;;;;9.35;100.00;153761.06;5015618;28;20455;-78
2023/03/31 06:02:08;;;;;;;6.03;5.30;;;;;;;9.36;100.00;153763.66;5017093;28;20471;-77
2023/03/31 06:04:35;;;;;;;12.27;6.37;;;;;;;9.36;100.00;153763.66;5014312;28;20817;-78
2023/03/31 06:07:04;;;;;;;10.20;5.90;;;;;;;9.36;100.00;153763.66;5015078;28;21020;-78
2023/03/31 06:09:32;;;;;;;8.17;5.77;;;;;;;9.34;100.00;153758.50;5017425;28;20971;-78
2023/03/31 06:11:58;;;;;;;7.43;6.00;;;;;;;9.34;100.00;153758.50;5015668;28;21154;-78
2023/03/31 06:14:25;;;;;;;13.27;7.50;;;;;;;9.37;100.00;153764.97;5016845;28;20460;-78
2023/03/31 06:16:52;;;;;;;6.80;5.53;;;;;;;9.38;100.00;153767.53;5013996;28;20803;-78
2023/03/31 06:19:19;;;;;;;7.83;5.80;;;;;;;9.40;100.00;153772.75;5014136;28;20456;-78
2023/03/31 06:21:46;;;;;;;9.07;6.90;;;;;;;9.38;100.00;153767.53;5014887;28;20836;-78
2023/03/31 06:24:12;;;;;;;8.53;6.70;;;;;;;9.37;100.00;153766.22;5012527;28;20540;-78
2023/03/31 06:26:41;;;;;;;8.17;7.40;;;;;;;9.38;100.00;153768.84;5021660;28;20443;-78
2023/03/31 06:29:07;;;;;;;9.90;8.10;;;;;;;9.40;100.00;153774.00;5014538;28;20812;-78
2023/03/31 06:31:35;;;;;;;11.30;6.60;;;;;;;9.39;100.00;153771.44;5013579;28;20458;-78
2023/03/31 06:34:01;;;;;;;14.10;8.17;;;;;;;9.38;100.00;153768.84;5014547;28;20951;-77
2023/03/31 06:36:28;;;;;;;12.10;7.50;;;;;;;9.40;100.00;153774.00;5011849;28;20947;-77
2023/03/31 06:38:55;;;;;;;8.67;7.50;;;;;;;9.40;100.00;153774.00;5014447;28;20451;-78
2023/03/31 06:41:22;;;;;;;8.50;6.40;;;;;;;9.42;100.00;153779.22;5011975;28;20540;-77
2023/03/31 06:43:50;;;;;;;8.90;6.80;;;;;;;9.42;100.00;153779.22;5013336;28;20809;-77
2023/03/31 06:46:17;;;;;;;10.07;6.40;;;;;;;9.42;100.00;153779.22;5001765;28;20474;-77
2023/03/31 06:48:44;;;;;;;9.67;7.40;;;;;;;9.43;100.00;153781.75;5016259;28;20449;-77
2023/03/31 06:51:12;;;;;;;13.97;8.40;;;;;;;9.41;100.00;153775.31;5015424;28;20457;-77
2023/03/31 06:53:38;;;;;;;7.60;6.90;;;;;;;9.40;100.00;153772.75;5000951;28;20512;-77
2023/03/31 06:56:06;;;;;;;10.00;7.50;;;;;;;9.39;100.00;153771.44;5012763;28;20499;-77
2023/03/31 06:58:32;;;;;;;8.83;6.40;;;;;;;9.38;100.00;153768.84;5012774;28;20561;-78
2023/03/31 07:01:02;;;;;;;14.60;6.30;;;;;;;9.37;100.00;153766.22;5016358;28;20498;-78
2023/03/31 07:03:29;;;;;;;14.70;7.23;;;;;;;9.36;100.00;153763.66;5019556;28;20519;-77
2023/03/31 07:05:55;;;;;;;10.33;6.50;;;;;;;9.36;100.00;153763.66;5018002;28;20575;-78
2023/03/31 07:08:23;;;;;;;10.27;6.63;;;;;;;9.36;100.00;153762.38;5015948;28;20595;-77
2023/03/31 07:10:56;;;;;;;11.37;5.97;;;;;;;9.38;100.00;153768.84;5018329;28;20453;-77
2023/03/31 07:13:24;;;;;;;9.00;6.83;;;;;;;9.43;100.00;153781.75;5025879;28;20447;-77
2023/03/31 07:15:51;;;;;;;9.13;5.90;;;;;;;9.45;100.00;153786.94;5000774;28;20543;-78
2023/03/31 07:18:19;;;;;;;7.67;6.20;;;;;;;9.45;100.00;153785.69;5019213;28;20563;-76
2023/03/31 07:20:48;;;;;;;6.03;5.23;;;;;;;9.45;100.00;153786.94;5045722;28;20575;-78
2023/03/31 07:23:15;;;;;;;6.33;4.27;;;;;;;9.45;100.00;153786.94;5018539;28;20480;-77
2023/03/31 07:25:41;;;;;;;5.97;4.43;;;;;;;9.48;100.00;153794.69;5018187;28;20482;-78
2023/03/31 07:28:08;;;;;;;6.60;4.50;;;;;;;9.54;100.00;153810.25;5013783;28;20453;-78
2023/03/31 07:30:35;;;;;;;5.87;4.90;;;;;;;9.54;100.00;153810.25;5016015;28;20452;-78
2023/03/31 07:33:02;;;;;;;5.60;3.90;;;;;;;9.57;100.00;153816.69;5013493;28;20449;-78
2023/03/31 07:35:30;;;;;;;4.80;4.03;;;;;;;9.56;100.00;153815.41;5016220;28;20455;-78
2023/03/31 07:37:57;;;;;;;4.67;3.30;;;;;;;9.56;100.00;153815.41;5013107;28;20507;-77
2023/03/31 07:40:25;;;;;;;4.30;3.10;;;;;;;9.60;100.00;153825.78;5000322;28;20548;-77
2023/03/31 07:42:51;;;;;;;4.10;2.70;;;;;;;9.88;100.00;153895.59;5016523;28;20452;-77
2023/03/31 07:45:19;;;;;;;3.37;2.93;;;;;;;10.32;100.00;154009.59;5011285;28;20473;-77
2023/03/31 07:47:46;;;;;;;3.63;2.77;;;;;;;10.60;100.00;154082.06;5014380;28;20817;-77
2023/03/31 07:50:13;;;;;;;2.17;1.97;;;;;;;10.83;100.00;154141.63;5014556;28;20465;-77
2023/03/31 07:52:41;;;;;;;5.00;3.60;;;;;;;10.94;100.00;154170.13;5016034;28;21030;-78
2023/03/31 07:55:08;;;;;;;2.70;1.50;;;;;;;11.00;100.00;154185.69;5013522;28;20483;-77
2023/03/31 07:57:35;;;;;;;4.60;2.10;;;;;;;11.32;100.00;154266.00;5016334;28;20452;-77
2023/03/31 08:00:05;;;;;;;2.73;1.60;;;;;;;11.51;100.00;154315.25;5017837;28;20859;-78
2023/03/31 08:02:39;;;;;;;3.53;1.80;;;;;;;11.64;100.00;154348.94;5015399;28;20464;-78
2023/03/31 08:05:07;;;;;;;2.03;1.20;;;;;;;11.79;100.00;154387.84;5017020;28;20513;-77
2023/03/31 08:07:34;;;;;;;2.70;1.40;;;;;;;11.72;100.00;154368.41;5015661;28;20481;-77
2023/03/31 08:10:03;;;;;;;3.90;1.63;;;;;;;11.63;100.00;154347.63;5015372;28;20445;-77
2023/03/31 08:12:30;;;;;;;1.93;1.20;;;;;;;11.82;100.00;154394.31;5019751;28;20799;-77
2023/03/31 08:14:57;;;;;;;4.13;1.30;;;;;;;12.11;100.00;154470.81;5015950;28;20527;-77
2023/03/31 08:17:23;;;;;;;1.93;1.20;;;;;;;12.40;100.00;154543.41;5015926;28;20449;-77
2023/03/31 08:19:51;;;;;;;1.80;1.20;;;;;;;12.66;100.00;154610.81;5015813;28;20449;-77
2023/03/31 08:22:18;;;;;;;1.30;1.03;;;;;;;12.89;100.00;154670.53;5015908;28;20477;-77
2023/03/31 08:24:44;;;;;;;1.73;1.10;;;;;;;13.02;100.00;154704.25;5013996;28;20781;-77
2023/03/31 08:27:12;;;;;;;2.13;1.17;;;;;;;13.12;100.00;154730.22;5014909;28;20458;-77
2023/03/31 08:29:39;;;;;;;1.67;1.00;;;;;;;13.27;100.00;154769.13;5014781;28;20453;-77
2023/03/31 08:32:06;;;;;;;1.67;1.30;;;;;;;13.37;100.00;154795.09;5015034;28;20510;-77
2023/03/31 08:34:33;;;;;;;1.60;1.13;;;;;;;13.38;100.00;154797.69;5015574;28;20453;-77
2023/03/31 08:36:59;;;;;;;2.30;1.10;;;;;;;13.42;100.00;154808.06;5017128;28;20816;-77
2023/03/31 08:39:26;;;;;;;1.80;1.33;;;;;;;13.45;100.00;154813.28;5015819;28;20493;-77
2023/03/31 08:41:57;;;;;;;2.10;1.33;;;;;;;13.52;99.61;154832.75;5012938;28;21072;-77
2023/03/31 08:44:30;;;;;;;1.90;1.40;;;;;;;13.48;99.15;154821.03;4999975;28;20799;-77
2023/03/31 08:46:58;;;;;;;2.20;1.30;;;;;;;13.49;100.00;154823.66;5017625;28;21069;-75
2023/03/31 08:49:26;;;;;;;2.70;0.93;;;;;;;13.52;100.00;154831.44;5016013;28;20441;-75
2023/03/31 08:51:57;;;;;;;1.60;1.23;;;;;;;13.53;100.00;154834.06;5015335;28;20455;-77
2023/03/31 08:54:32;;;;;;;1.57;1.23;;;;;;;13.53;100.00;154835.31;5015658;28;20448;-77
2023/03/31 08:56:59;;;;;;;2.50;1.50;;;;;;;13.52;100.00;154831.44;5015013;28;20956;-77
2023/03/31 08:59:30;;;;;;;2.97;1.43;;;;;;;13.53;100.00;154835.31;5016696;28;20454;-76
2023/03/31 09:02:01;;;;;;;1.87;1.20;;;;;;;13.53;99.02;154834.06;5008231;28;20450;-77
2023/03/31 09:04:55;;;;;;;2.10;1.20;;;;;;;13.53;99.11;154835.31;5014185;28;20440;-76
2023/03/31 09:07:29;;;;;;;2.30;1.30;;;;;;;13.53;100.00;154834.06;5018035;28;20887;-77
2023/03/31 09:10:02;;;;;;;1.93;1.30;;;;;;;13.56;99.12;154841.78;5016028;28;20841;-76
2023/03/31 09:12:35;;;;;;;2.20;1.40;;;;;;;13.60;99.31;154852.22;5018009;28;20544;-76
2023/03/31 09:15:04;;;;;;;1.83;1.17;;;;;;;13.63;96.38;154860.00;5013575;28;20456;-76
2023/03/31 09:17:34;;;;;;;1.50;1.00;;;;;;;13.62;96.15;154857.38;5012420;28;20455;-76
2023/03/31 09:20:06;;;;;;;2.57;1.20;;;;;;;13.67;97.19;154870.34;5015848;28;20473;-76
2023/03/31 09:22:35;;;;;;;1.97;1.10;;;;;;;13.72;96.11;154884.63;5014219;28;20507;-76
2023/03/31 09:25:06;;;;;;;2.23;1.30;;;;;;;13.80;94.21;154904.09;5006525;28;20495;-76
2023/03/31 09:27:36;;;;;;;2.60;1.17;;;;;;;13.80;92.53;154904.09;5016472;28;20860;-76
2023/03/31 09:30:11;;;;;;;2.17;1.30;;;;;;;13.88;92.90;154924.88;5013223;28;20454;-76
2023/03/31 09:32:38;;;;;;;1.73;1.13;;;;;;;13.88;91.66;154926.19;5015926;28;20496;-76
2023/03/31 09:35:15;;;;;;;1.40;1.00;;;;;;;13.86;89.90;154921.00;5014075;28;20463;-76
2023/03/31 09:37:42;;;;;;;1.70;1.07;;;;;;;13.85;92.64;154917.06;5013598;28;20459;-77
2023/03/31 09:40:16;;;;;;;1.87;1.20;;;;;;;13.82;89.32;154909.34;5015299;28;20463;-76
2023/03/31 09:42:43;;;;;;;2.60;1.10;;;;;;;13.90;89.62;154930.06;5019996;28;21021;-76
2023/03/31 09:45:16;;;;;;;3.30;1.50;;;;;;;13.79;87.88;154901.53;5013033;28;20549;-76
2023/03/31 09:47:46;;;;;;;4.47;1.70;;;;;;;13.71;88.16;154880.78;5014239;28;20973;-76
2023/03/31 09:50:13;;;;;;;2.00;1.20;;;;;;;13.72;92.49;154883.34;5013762;28;20974;-76
2023/03/31 09:52:41;;;;;;;1.87;1.20;;;;;;;13.70;93.01;154878.16;5012862;28;20546;-76
2023/03/31 09:55:18;;;;;;;2.10;1.20;;;;;;;13.75;93.72;154891.13;5013337;28;20467;-76
2023/03/31 09:57:45;;;;;;;1.53;1.10;;;;;;;13.82;85.60;154910.59;5017218;28;20464;-76
2023/03/31 10:00:17;;;;;;;3.83;1.50;;;;;;;13.87;84.17;154922.31;5013811;28;20492;-76
2023/03/31 10:02:47;;;;;;;3.57;1.77;;;;;;;13.93;85.27;154939.16;5005972;28;20804;-76
2023/03/31 10:05:29;;;;;;;3.40;1.17;;;;;;;13.96;85.28;154946.94;5014738;28;20469;-76
2023/03/31 10:08:18;;;;;;;1.33;0.80;;;;;;;13.91;82.03;154932.66;5012435;28;20844;-76
2023/03/31 10:10:45;;;;;;;3.83;2.00;;;;;;;13.88;80.52;154924.88;5013231;28;20545;-76
2023/03/31 10:13:16;;;;;;;4.07;0.80;;;;;;;13.87;83.14;154922.31;5012278;28;20450;-76
2023/03/31 10:15:45;;;;;;;3.53;1.13;;;;;;;13.89;82.30;154927.50;5016775;28;20471;-77
2023/03/31 10:18:13;;;;;;;2.70;1.27;;;;;;;13.90;80.33;154930.06;5014207;28;20514;-77
2023/03/31 10:20:45;;;;;;;1.93;1.07;;;;;;;13.83;81.66;154911.91;5016127;28;20463;-77
2023/03/31 10:23:16;;;;;;;4.17;1.20;;;;;;;13.83;85.65;154911.91;5014895;28;20482;-76
2023/03/31 10:25:44;;;;;;;2.60;1.00;;;;;;;13.86;83.03;154921.00;5014460;28;20470;-77
2023/03/31 10:28:12;;;;;;;4.70;1.63;;;;;;;13.87;83.18;154922.31;5014550;28;20961;-77
2023/03/31 10:30:40;;;;;;;2.00;1.17;;;;;;;13.92;78.24;154935.28;5012963;28;20460;-77
2023/03/31 10:33:13;;;;;;;2.97;1.30;;;;;;;14.07;84.65;154974.22;5012285;28;20725;-77
2023/03/31 10:35:40;;;;;;;2.13;1.20;;;;;;;14.16;79.86;154996.31;5018899;28;20446;-77
2023/03/31 10:38:10;;;;;;;2.83;1.20;;;;;;;14.26;81.42;155022.25;5018033;28;20497;-77
2023/03/31 10:40:37;;;;;;;2.77;1.30;;;;;;;14.24;78.48;155018.38;5027603;28;21015;-77
2023/03/31 10:43:09;;;;;;;3.23;1.23;;;;;;;14.23;73.94;155014.47;5018969;28;20917;-77
2023/03/31 10:45:38;;;;;;;3.17;1.37;;;;;;;14.35;75.40;155046.97;5018719;28;20487;-77
2023/03/31 10:48:09;;;;;;;5.27;1.67;;;;;;;14.34;73.99;155044.41;5016077;28;20460;-77
2023/03/31 10:50:37;;;;;;;2.40;1.10;;;;;;;14.41;76.26;155062.56;5018161;28;20495;-77
2023/03/31 10:53:06;;;;;;;4.17;1.50;;;;;;;14.43;78.19;155067.75;5018826;28;20463;-76
2023/03/31 10:55:36;;;;;;;5.57;1.03;;;;;;;14.45;72.78;155072.97;5019436;28;20447;-77
2023/03/31 10:58:13;;;;;;;3.30;1.30;;;;;;;14.56;68.97;155101.50;5020600;28;20447;-77
2023/03/31 11:00:50;;;;;;;3.67;1.03;;;;;;;14.79;71.88;155158.69;5027032;28;20673;-77
2023/03/31 11:03:46;;;;;;;2.83;1.20;;;;;;;14.75;76.59;155149.56;5019575;28;20448;-77
2023/03/31 11:06:20;;;;;;;4.90;1.40;;;;;;;14.70;73.26;155135.28;5001930;28;20508;-77
2023/03/31 11:08:52;;;;;;;3.60;1.20;;;;;;;14.68;67.06;155130.09;5016391;28;20447;-77
2023/03/31 11:11:27;;;;;;;1.87;1.00;;;;;;;14.68;69.08;155130.09;5016452;28;20473;-76
2023/03/31 11:13:57;;;;;;;4.87;1.70;;;;;;;14.68;71.79;155130.09;5021889;28;20450;-77
2023/03/31 11:16:30;;;;;;;4.00;1.60;;;;;;;14.54;67.90;155096.31;5020375;28;20546;-76
2023/03/31 11:19:11;;;;;;;3.87;1.30;;;;;;;14.46;71.26;155075.53;5046609;28;20542;-77
2023/03/31 11:21:50;;;;;;;3.20;0.90;;;;;;;14.39;74.64;155057.38;5004488;28;20517;-76
2023/03/31 11:24:27;;;;;;;5.23;1.80;;;;;;;14.23;78.87;155014.47;5017526;28;20471;-77
2023/03/31 11:27:01;;;;;;;7.20;1.20;;;;;;;13.91;88.28;154932.66;5019146;28;20510;-77
2023/03/31 11:29:34;;;;;;;1.63;0.60;;;;;;;13.18;93.17;154744.50;5017091;28;20824;-77
2023/03/31 11:32:16;;;;;;;2.63;0.80;;;;;;;12.70;94.69;154621.22;5016345;28;20450;-77
2023/03/31 11:34:55;;;;;;;1.30;0.77;;;;;;;12.25;92.52;154505.81;5017222;28;20783;-77